createdAt,value
2022-11-10T00:02:05.463Z,2.40
2022-11-10T00:04:32.032Z,2.83
2022-11-10T00:06:58.588Z,3.37
2022-11-10T00:09:25.130Z,3.17
2022-11-10T00:11:51.655Z,3.17
2022-11-10T00:14:37.004Z,2.30
2022-11-10T00:17:06.429Z,2.80
2022-11-10T00:19:32.924Z,2.83
2022-11-10T00:21:59.508Z,2.43
2022-11-10T00:24:26.099Z,2.90
2022-11-10T00:26:52.590Z,3.70
2022-11-10T00:29:19.075Z,2.90
2022-11-10T00:31:45.637Z,3.50
2022-11-10T00:34:12.185Z,3.40
2022-11-10T00:36:38.732Z,3.40
2022-11-10T00:39:05.210Z,3.10
2022-11-10T00:41:31.747Z,3.10
2022-11-10T00:43:58.242Z,3.13
2022-11-10T00:46:24.875Z,3.27
2022-11-10T00:48:51.399Z,2.70
2022-11-10T00:51:17.879Z,2.83
2022-11-10T00:53:44.377Z,2.37
2022-11-10T00:56:10.884Z,2.50
2022-11-10T00:58:37.412Z,3.03
2022-11-10T01:01:03.945Z,3.37
2022-11-10T01:03:30.494Z,3.97
2022-11-10T01:05:57.040Z,2.37
2022-11-10T01:08:23.560Z,3.30
2022-11-10T01:10:50.078Z,3.37
2022-11-10T01:13:16.596Z,3.67
2022-11-10T01:15:43.083Z,3.90
2022-11-10T01:18:09.646Z,3.80
2022-11-10T01:20:36.139Z,3.67
2022-11-10T01:23:02.686Z,3.33
2022-11-10T01:25:29.217Z,3.67
2022-11-10T01:27:55.728Z,2.50
2022-11-10T01:30:22.236Z,2.83
2022-11-10T01:32:48.788Z,3.37
2022-11-10T01:35:15.350Z,3.30
2022-11-10T01:37:41.901Z,3.23
2022-11-10T01:40:08.466Z,2.93
2022-11-10T01:42:34.983Z,3.63
2022-11-10T01:45:01.490Z,3.87
2022-11-10T01:47:28.018Z,3.57
2022-11-10T01:49:54.515Z,4.10
2022-11-10T01:52:21.007Z,3.40
2022-11-10T01:54:47.520Z,3.57
2022-11-10T01:57:14.047Z,3.87
2022-11-10T01:59:40.595Z,3.93
2022-11-10T02:02:07.284Z,4.97
2022-11-10T02:04:33.806Z,4.40
2022-11-10T02:07:00.349Z,3.70
2022-11-10T02:09:26.901Z,4.43
2022-11-10T02:11:53.483Z,4.37
2022-11-10T02:14:19.994Z,4.17
2022-11-10T02:16:46.482Z,4.23
2022-11-10T02:19:12.978Z,3.70
2022-11-10T02:21:40.556Z,3.43
2022-11-10T02:24:07.089Z,3.73
2022-11-10T02:26:33.598Z,3.70
2022-11-10T02:29:00.126Z,4.00
2022-11-10T02:31:26.621Z,3.57
2022-11-10T02:33:53.116Z,4.10
2022-11-10T02:36:19.807Z,3.30
2022-11-10T02:38:46.375Z,4.70
2022-11-10T02:41:12.929Z,4.20
2022-11-10T02:43:39.454Z,3.37
2022-11-10T02:46:06.002Z,3.50
2022-11-10T02:48:32.578Z,3.40
2022-11-10T02:50:59.080Z,3.33
2022-11-10T02:53:25.643Z,3.70
2022-11-10T02:55:52.148Z,4.17
2022-11-10T02:58:18.659Z,3.83
2022-11-10T03:00:45.164Z,3.53
2022-11-10T03:03:11.710Z,5.80
2022-11-10T03:05:38.221Z,4.57
2022-11-10T03:08:04.726Z,3.60
2022-11-10T03:10:31.222Z,4.37
2022-11-10T03:12:57.804Z,5.10
2022-11-10T03:15:24.495Z,3.87
2022-11-10T03:17:51.014Z,4.80
2022-11-10T03:20:17.525Z,5.33
2022-11-10T03:22:44.027Z,4.30
2022-11-10T03:25:10.559Z,4.47
2022-11-10T03:27:37.031Z,4.70
2022-11-10T03:30:03.556Z,4.07
2022-11-10T03:32:30.056Z,3.37
2022-11-10T03:34:56.540Z,4.30
2022-11-10T03:37:23.105Z,3.63
2022-11-10T03:39:49.568Z,4.20
2022-11-10T03:42:16.140Z,4.33
2022-11-10T03:44:42.640Z,4.60
2022-11-10T03:47:09.137Z,4.00
2022-11-10T03:49:35.753Z,4.17
2022-11-10T03:52:02.443Z,4.50
2022-11-10T03:54:28.939Z,4.30
2022-11-10T03:56:55.411Z,3.97
2022-11-10T03:59:21.909Z,3.90
2022-11-10T04:01:48.482Z,3.53
2022-11-10T04:04:33.852Z,4.47
2022-11-10T04:07:19.030Z,3.70
2022-11-10T04:09:45.585Z,3.83
2022-11-10T04:12:30.992Z,4.13
2022-11-10T04:15:16.619Z,4.73
2022-11-10T04:17:43.124Z,4.20
2022-11-10T04:20:09.647Z,4.27
2022-11-10T04:22:54.923Z,4.13
2022-11-10T04:25:21.471Z,4.53
2022-11-10T04:27:48.065Z,3.87
2022-11-10T04:30:14.576Z,4.33
2022-11-10T04:32:41.119Z,4.30
2022-11-10T04:35:07.670Z,5.23
2022-11-10T04:37:34.148Z,3.87
2022-11-10T04:40:00.782Z,4.37
2022-11-10T04:42:27.285Z,5.37
2022-11-10T04:44:53.873Z,5.27
2022-11-10T04:47:20.350Z,5.87
2022-11-10T04:49:46.876Z,5.40
2022-11-10T04:52:13.393Z,4.63
2022-11-10T04:54:39.895Z,5.47
2022-11-10T04:57:06.447Z,5.33
2022-11-10T04:59:32.960Z,5.80
2022-11-10T05:01:59.463Z,5.27
2022-11-10T05:04:25.967Z,5.37
2022-11-10T05:06:53.874Z,6.40
2022-11-10T05:09:20.463Z,5.93
2022-11-10T05:11:46.967Z,5.43
2022-11-10T05:14:13.479Z,6.10
2022-11-10T05:16:40.207Z,5.30
2022-11-10T05:19:06.975Z,6.23
2022-11-10T05:21:34.037Z,4.60
2022-11-10T05:24:00.599Z,4.40
2022-11-10T05:26:27.102Z,4.90
2022-11-10T05:28:53.585Z,4.50
2022-11-10T05:31:20.097Z,5.17
2022-11-10T05:33:46.634Z,5.90
2022-11-10T05:36:13.147Z,5.60
2022-11-10T05:38:43.494Z,5.37
2022-11-10T05:41:10.426Z,5.00
2022-11-10T05:43:36.917Z,5.73
2022-11-10T05:46:03.448Z,4.10
2022-11-10T05:48:29.914Z,4.67
2022-11-10T05:50:56.431Z,4.53
2022-11-10T05:53:23.330Z,4.20
2022-11-10T05:55:50.175Z,4.87
2022-11-10T05:58:16.758Z,3.60
2022-11-10T06:00:43.417Z,5.47
2022-11-10T06:03:09.978Z,5.83
2022-11-10T06:05:36.509Z,4.23
2022-11-10T06:08:03.096Z,4.63
2022-11-10T06:10:29.643Z,5.07
2022-11-10T06:12:56.251Z,5.10
2022-11-10T06:15:22.808Z,4.00
2022-11-10T06:17:49.308Z,3.87
2022-11-10T06:20:17.114Z,4.60
2022-11-10T06:22:43.714Z,4.30
2022-11-10T06:25:10.282Z,4.70
2022-11-10T06:27:36.774Z,4.40
2022-11-10T06:30:03.290Z,5.30
2022-11-10T06:32:29.766Z,5.60
2022-11-10T06:35:00.341Z,5.43
2022-11-10T06:37:27.269Z,5.23
2022-11-10T06:39:53.787Z,5.13
2022-11-10T06:42:20.294Z,5.97
2022-11-10T06:44:46.779Z,4.60
2022-11-10T06:47:13.376Z,5.40
2022-11-10T06:49:39.866Z,5.50
2022-11-10T06:52:06.418Z,6.57
2022-11-10T06:54:33.047Z,7.90
2022-11-10T06:56:59.726Z,6.83
2022-11-10T06:59:26.260Z,6.50
2022-11-10T07:01:52.761Z,5.50
2022-11-10T07:04:20.848Z,6.37
2022-11-10T07:06:47.903Z,6.63
2022-11-10T07:09:14.560Z,4.83
2022-11-10T07:11:41.146Z,5.50
2022-11-10T07:14:07.622Z,6.57
2022-11-10T07:16:34.126Z,6.27
2022-11-10T07:19:00.636Z,5.53
2022-11-10T07:21:27.114Z,5.73
2022-11-10T07:23:57.679Z,6.90
2022-11-10T07:26:47.660Z,6.33
2022-11-10T07:29:15.804Z,5.40
2022-11-10T07:31:42.367Z,5.67
2022-11-10T07:34:08.898Z,5.20
2022-11-10T07:36:35.380Z,5.60
2022-11-10T07:39:02.034Z,4.57
2022-11-10T07:41:28.763Z,5.23
2022-11-10T07:43:55.305Z,4.83
2022-11-10T07:46:21.940Z,4.63
2022-11-10T07:48:48.590Z,5.17
2022-11-10T07:51:15.098Z,5.40
2022-11-10T07:53:41.899Z,4.97
2022-11-10T07:56:08.451Z,4.97
2022-11-10T07:58:35.335Z,5.37
2022-11-10T08:01:01.837Z,4.40
2022-11-10T08:03:28.329Z,4.17
2022-11-10T08:05:54.872Z,4.87
2022-11-10T08:08:21.362Z,4.80
2022-11-10T08:10:47.902Z,5.70
2022-11-10T08:13:14.421Z,6.17
2022-11-10T08:15:40.954Z,3.60
2022-11-10T08:18:07.454Z,5.17
2022-11-10T08:20:33.930Z,3.40
2022-11-10T08:23:00.537Z,4.33
2022-11-10T08:25:30.340Z,5.33
2022-11-10T08:28:00.941Z,4.57
2022-11-10T08:30:27.516Z,5.00
2022-11-10T08:32:54.023Z,4.90
2022-11-10T08:35:20.585Z,5.27
2022-11-10T08:37:47.131Z,5.33
2022-11-10T08:40:13.687Z,4.97
2022-11-10T08:42:40.183Z,5.23
2022-11-10T08:45:06.684Z,5.13
2022-11-10T08:47:33.212Z,5.27
2022-11-10T08:49:59.707Z,5.73
2022-11-10T08:52:26.305Z,5.20
2022-11-10T08:54:52.817Z,5.47
2022-11-10T08:57:19.384Z,4.60
2022-11-10T08:59:45.972Z,6.07
2022-11-10T09:02:12.495Z,5.97
2022-11-10T09:04:39.144Z,6.00
2022-11-10T09:07:05.713Z,6.00
2022-11-10T09:09:32.264Z,5.60
2022-11-10T09:11:58.866Z,5.03
2022-11-10T09:14:25.491Z,5.10
2022-11-10T09:16:52.096Z,5.10
2022-11-10T09:19:19.984Z,5.73
2022-11-10T09:21:46.839Z,5.10
2022-11-10T09:24:13.426Z,5.47
2022-11-10T09:26:39.984Z,4.30
2022-11-10T09:29:06.519Z,5.43
2022-11-10T09:31:33.052Z,6.20
2022-11-10T09:33:59.669Z,4.20
2022-11-10T09:36:26.301Z,5.27
2022-11-10T09:38:52.983Z,6.70
2022-11-10T09:41:19.465Z,4.23
2022-11-10T09:43:45.970Z,5.23
2022-11-10T09:46:12.498Z,4.20
2022-11-10T09:48:50.236Z,4.30
2022-11-10T09:51:16.898Z,5.37
2022-11-10T09:53:43.522Z,4.93
2022-11-10T09:56:10.271Z,5.43
2022-11-10T09:58:36.831Z,3.67
2022-11-10T10:01:03.511Z,3.97
2022-11-10T10:03:30.142Z,4.83
2022-11-10T10:05:56.732Z,3.90
2022-11-10T10:08:23.579Z,4.23
2022-11-10T10:10:50.289Z,4.20
2022-11-10T10:13:16.850Z,4.30
2022-11-10T10:15:44.830Z,3.57
2022-11-10T10:18:12.935Z,3.73
2022-11-10T10:20:39.462Z,3.87
2022-11-10T10:23:05.957Z,3.63
2022-11-10T10:25:32.861Z,2.80
2022-11-10T10:27:59.495Z,3.67
2022-11-10T10:30:25.991Z,3.80
2022-11-10T10:32:52.487Z,3.67
2022-11-10T10:35:19.093Z,2.83
2022-11-10T10:37:45.939Z,3.60
2022-11-10T10:40:12.438Z,2.63
2022-11-10T10:42:39.831Z,2.83
2022-11-10T10:45:06.604Z,3.73
2022-11-10T10:47:33.112Z,2.67
2022-11-10T10:49:59.655Z,2.37
2022-11-10T10:52:27.021Z,2.37
2022-11-10T10:54:53.519Z,2.30
2022-11-10T10:57:20.068Z,2.30
2022-11-10T10:59:46.577Z,2.97
2022-11-10T11:02:13.124Z,2.93
2022-11-10T11:04:39.832Z,2.20
2022-11-10T11:07:06.369Z,2.63
2022-11-10T11:09:32.872Z,2.40
2022-11-10T11:11:59.414Z,3.07
2022-11-10T11:14:26.010Z,2.47
2022-11-10T11:16:52.515Z,3.03
2022-11-10T11:19:19.016Z,4.10
2022-11-10T11:21:45.530Z,2.70
2022-11-10T11:24:12.081Z,2.50
2022-11-10T11:26:38.594Z,2.30
2022-11-10T11:29:05.085Z,1.80
2022-11-10T11:31:32.207Z,1.87
2022-11-10T11:33:58.973Z,2.13
2022-11-10T11:36:25.585Z,1.70
2022-11-10T11:38:52.291Z,1.50
2022-11-10T11:41:18.855Z,2.07
2022-11-10T11:43:45.362Z,2.13
2022-11-10T11:46:12.391Z,3.47
2022-11-10T11:48:38.849Z,1.80
2022-11-10T11:51:05.411Z,2.30
2022-11-10T11:53:31.893Z,1.90
2022-11-10T11:55:58.388Z,2.33
2022-11-10T11:58:25.453Z,2.63
2022-11-10T12:00:52.193Z,2.10
2022-11-10T12:03:18.694Z,2.10
2022-11-10T12:05:45.404Z,2.70
2022-11-10T12:08:11.929Z,2.00
2022-11-10T12:10:43.011Z,2.07
2022-11-10T12:13:09.824Z,1.60
2022-11-10T12:15:36.389Z,2.40
2022-11-10T12:18:02.863Z,2.10
2022-11-10T12:20:29.367Z,1.27
2022-11-10T12:22:55.878Z,2.63
2022-11-10T12:25:22.369Z,2.57
2022-11-10T12:27:48.904Z,2.10
2022-11-10T12:30:15.598Z,1.63
2022-11-10T12:32:43.006Z,2.00
2022-11-10T12:35:09.560Z,2.70
2022-11-10T12:37:36.046Z,1.73
2022-11-10T12:40:02.841Z,2.37
2022-11-10T12:42:29.400Z,2.10
2022-11-10T12:44:56.288Z,1.90
2022-11-10T12:47:22.777Z,1.40
2022-11-10T12:49:49.297Z,2.20
2022-11-10T12:52:16.024Z,1.53
2022-11-10T12:54:42.561Z,1.80
2022-11-10T12:57:09.175Z,2.07
2022-11-10T12:59:35.742Z,1.70
2022-11-10T13:02:02.610Z,1.73
2022-11-10T13:04:29.194Z,2.67
2022-11-10T13:06:55.765Z,2.10
2022-11-10T13:09:22.336Z,2.43
2022-11-10T13:11:48.816Z,1.00
2022-11-10T13:14:15.308Z,1.80
2022-11-10T13:16:41.869Z,1.97
2022-11-10T13:19:08.658Z,1.47
2022-11-10T13:21:35.151Z,2.33
2022-11-10T13:24:02.502Z,1.53
2022-11-10T13:26:29.006Z,1.40
2022-11-10T13:28:55.656Z,2.07
2022-11-10T13:31:22.158Z,1.53
2022-11-10T13:33:48.637Z,1.57
2022-11-10T13:36:15.145Z,1.30
2022-11-10T13:38:41.707Z,1.60
2022-11-10T13:41:08.252Z,1.33
2022-11-10T13:43:34.743Z,1.67
2022-11-10T13:46:01.293Z,1.53
2022-11-10T13:48:27.780Z,1.70
2022-11-10T13:50:55.221Z,1.53
2022-11-10T13:53:22.305Z,1.37
2022-11-10T13:55:48.796Z,1.63
2022-11-10T13:58:15.318Z,1.60
2022-11-10T14:00:41.826Z,1.90
2022-11-10T14:03:08.402Z,2.00
2022-11-10T14:05:38.404Z,1.50
2022-11-10T14:08:04.904Z,1.90
2022-11-10T14:10:31.395Z,1.40
2022-11-10T14:12:57.908Z,1.43
2022-11-10T14:15:24.906Z,1.97
2022-11-10T14:17:51.434Z,1.20
2022-11-10T14:20:17.919Z,1.17
2022-11-10T14:22:44.419Z,1.90
2022-11-10T14:25:11.000Z,1.50
2022-11-10T14:27:37.529Z,1.40
2022-11-10T14:30:04.181Z,1.90
2022-11-10T14:32:30.656Z,2.00
2022-11-10T14:34:57.724Z,2.00
2022-11-10T14:37:24.342Z,1.03
2022-11-10T14:39:50.897Z,1.60
2022-11-10T14:42:17.393Z,1.30
2022-11-10T14:44:43.948Z,1.63
2022-11-10T14:47:10.459Z,1.90
2022-11-10T14:49:37.269Z,1.80
2022-11-10T14:52:04.056Z,1.47
2022-11-10T14:54:30.591Z,1.70
2022-11-10T14:56:57.074Z,1.60
2022-11-10T14:59:23.638Z,1.43
2022-11-10T15:01:50.124Z,1.43
2022-11-10T15:04:16.653Z,1.83
2022-11-10T15:06:46.890Z,1.90
2022-11-10T15:09:13.842Z,1.43
2022-11-10T15:11:40.387Z,1.63
2022-11-10T15:14:06.886Z,1.60
2022-11-10T15:16:34.561Z,1.70
2022-11-10T15:19:01.030Z,1.20
2022-11-10T15:21:27.560Z,2.60
2022-11-10T15:23:54.110Z,1.70
2022-11-10T15:26:20.721Z,1.73
2022-11-10T15:28:47.344Z,1.00
2022-11-10T15:31:14.131Z,1.50
2022-11-10T15:33:40.656Z,2.40
2022-11-10T15:36:07.201Z,2.00
2022-11-10T15:38:33.780Z,1.60
2022-11-10T15:41:00.327Z,1.60
2022-11-10T15:43:27.307Z,1.23
2022-11-10T15:45:54.044Z,1.33
2022-11-10T15:48:20.826Z,1.80
2022-11-10T15:50:47.876Z,1.40
2022-11-10T15:53:14.906Z,1.50
2022-11-10T15:55:41.442Z,2.00
2022-11-10T15:58:07.956Z,1.90
2022-11-10T16:00:34.506Z,2.27
2022-11-10T16:03:01.025Z,2.07
2022-11-10T16:05:27.858Z,2.17
2022-11-10T16:07:54.486Z,1.30
2022-11-10T16:10:21.023Z,1.90
2022-11-10T16:12:47.544Z,2.50
2022-11-10T16:15:14.138Z,3.77
2022-11-10T16:17:40.919Z,1.50
2022-11-10T16:20:07.664Z,2.13
2022-11-10T16:22:34.272Z,2.57
2022-11-10T16:25:00.855Z,2.13
2022-11-10T16:27:27.439Z,2.13
2022-11-10T16:29:53.946Z,2.20
2022-11-10T16:32:20.434Z,2.03
2022-11-10T16:34:46.926Z,2.07
2022-11-10T16:37:13.461Z,2.63
2022-11-10T16:39:40.002Z,2.20
2022-11-10T16:42:06.571Z,2.47
2022-11-10T16:44:33.300Z,2.20
2022-11-10T16:46:59.815Z,2.50
2022-11-10T16:49:26.362Z,1.87
2022-11-10T16:51:52.923Z,1.90
2022-11-10T16:54:19.451Z,2.03
2022-11-10T16:56:45.999Z,2.00
2022-11-10T16:59:13.517Z,2.67
2022-11-10T17:01:40.139Z,2.60
2022-11-10T17:04:06.701Z,2.30
2022-11-10T17:06:33.261Z,2.37
2022-11-10T17:08:59.908Z,2.13
2022-11-10T17:11:26.399Z,2.33
2022-11-10T17:13:52.927Z,2.67
2022-11-10T17:16:19.768Z,2.63
2022-11-10T17:18:46.342Z,1.77
2022-11-10T17:21:12.886Z,2.50
2022-11-10T17:23:39.628Z,2.10
2022-11-10T17:26:06.175Z,2.07
2022-11-10T17:28:32.807Z,2.57
2022-11-10T17:30:59.444Z,2.13
2022-11-10T17:33:26.325Z,2.17
2022-11-10T17:35:53.095Z,3.00
2022-11-10T17:38:19.756Z,2.40
2022-11-10T17:40:46.317Z,3.00
2022-11-10T17:43:12.867Z,3.13
2022-11-10T17:45:39.491Z,2.77
2022-11-10T17:48:06.460Z,2.70
2022-11-10T17:50:32.955Z,3.10
2022-11-10T17:52:59.500Z,2.30
2022-11-10T17:55:32.781Z,3.20
2022-11-10T17:58:00.776Z,2.73
2022-11-10T18:00:27.283Z,3.70
2022-11-10T18:02:56.847Z,2.83
2022-11-10T18:05:23.465Z,3.17
2022-11-10T18:07:50.845Z,2.73
2022-11-10T18:10:17.368Z,2.67
2022-11-10T18:12:44.036Z,2.60
2022-11-10T18:15:10.550Z,3.43
2022-11-10T18:17:37.237Z,2.67
2022-11-10T18:20:04.949Z,3.60
2022-11-10T18:22:31.592Z,3.10
2022-11-10T18:24:58.123Z,3.70
2022-11-10T18:27:25.573Z,2.40
2022-11-10T18:29:52.238Z,2.50
2022-11-10T18:32:18.763Z,3.33
2022-11-10T18:34:45.352Z,3.00
2022-11-10T18:37:11.904Z,3.33
2022-11-10T18:39:38.460Z,3.00
2022-11-10T18:42:04.979Z,3.10
2022-11-10T18:44:36.655Z,3.63
2022-11-10T18:47:03.153Z,3.30
2022-11-10T18:49:30.384Z,3.00
2022-11-10T18:51:56.883Z,3.50
2022-11-10T18:54:23.669Z,2.37
2022-11-10T18:56:50.752Z,3.20
2022-11-10T18:59:17.289Z,2.90
2022-11-10T19:01:44.006Z,3.60
2022-11-10T19:04:10.571Z,3.40
2022-11-10T19:06:37.327Z,4.00
2022-11-10T19:09:04.248Z,3.93
2022-11-10T19:11:30.789Z,2.87
2022-11-10T19:13:58.190Z,3.40
2022-11-10T19:16:24.756Z,3.20
2022-11-10T19:18:51.294Z,3.20
2022-11-10T19:21:17.953Z,4.00
2022-11-10T19:23:44.472Z,3.90
2022-11-10T19:26:11.616Z,3.53
2022-11-10T19:28:38.110Z,3.50
2022-11-10T19:31:04.719Z,4.37
2022-11-10T19:33:31.215Z,3.73
2022-11-10T19:35:57.837Z,3.57
2022-11-10T19:38:24.350Z,3.60
2022-11-10T19:40:50.906Z,3.47
2022-11-10T19:43:17.528Z,4.00
2022-11-10T19:45:44.096Z,3.30
2022-11-10T19:48:10.596Z,4.27
2022-11-10T19:50:37.106Z,3.20
2022-11-10T19:53:03.584Z,3.23
2022-11-10T19:55:30.173Z,3.83
2022-11-10T19:57:56.659Z,2.57
2022-11-10T20:00:23.157Z,3.47
2022-11-10T20:02:49.704Z,3.33
2022-11-10T20:05:17.114Z,4.37
2022-11-10T20:08:05.181Z,3.70
2022-11-10T20:10:35.339Z,3.60
2022-11-10T20:13:01.862Z,3.87
2022-11-10T20:15:28.448Z,3.00
2022-11-10T20:17:55.122Z,3.53
2022-11-10T20:20:21.657Z,3.90
2022-11-10T20:22:48.309Z,3.97
2022-11-10T20:25:14.789Z,3.70
2022-11-10T20:27:41.291Z,4.73
2022-11-10T20:30:07.860Z,4.50
2022-11-10T20:32:34.471Z,3.70
2022-11-10T20:35:01.015Z,3.13
2022-11-10T20:37:27.522Z,3.87
2022-11-10T20:39:54.032Z,3.50
2022-11-10T20:42:20.639Z,2.93
2022-11-10T20:44:47.133Z,3.50
2022-11-10T20:47:13.690Z,3.60
2022-11-10T20:49:40.313Z,3.43
2022-11-10T20:52:06.834Z,4.30
2022-11-10T20:54:33.708Z,3.93
2022-11-10T20:57:00.307Z,3.43
2022-11-10T20:59:26.814Z,3.50
2022-11-10T21:01:53.344Z,3.23
2022-11-10T21:04:19.862Z,4.50
2022-11-10T21:06:46.783Z,3.40
2022-11-10T21:09:13.348Z,3.40
2022-11-10T21:11:58.609Z,3.80
2022-11-10T21:14:25.109Z,3.90
2022-11-10T21:16:51.692Z,3.30
2022-11-10T21:19:18.182Z,3.20
2022-11-10T21:21:44.819Z,3.80
2022-11-10T21:24:11.393Z,3.10
2022-11-10T21:26:38.005Z,4.03
2022-11-10T21:29:04.590Z,3.27
2022-11-10T21:31:31.139Z,4.37
2022-11-10T21:33:57.714Z,4.50
2022-11-10T21:36:28.212Z,3.50
2022-11-10T21:38:54.699Z,3.63
2022-11-10T21:41:21.205Z,3.60
2022-11-10T21:43:47.678Z,3.00
2022-11-10T21:46:14.191Z,3.33
2022-11-10T21:48:40.725Z,3.97
2022-11-10T21:51:07.363Z,2.83
2022-11-10T21:53:33.881Z,3.40
2022-11-10T21:56:00.424Z,3.03
2022-11-10T21:58:26.945Z,3.00
2022-11-10T22:00:53.482Z,3.10
2022-11-10T22:03:20.167Z,3.57
2022-11-10T22:05:46.907Z,3.50
2022-11-10T22:08:14.242Z,3.57
2022-11-10T22:11:00.799Z,2.60
2022-11-10T22:13:46.032Z,3.50
2022-11-10T22:16:31.467Z,3.47
2022-11-10T22:18:57.935Z,3.33
2022-11-10T22:21:24.418Z,4.23
2022-11-10T22:24:09.842Z,3.77
2022-11-10T22:26:36.449Z,3.77
2022-11-10T22:29:02.939Z,2.93
2022-11-10T22:31:29.431Z,4.40
2022-11-10T22:33:55.934Z,4.43
2022-11-10T22:36:22.461Z,4.00
2022-11-10T22:38:49.639Z,4.93
2022-11-10T22:41:34.974Z,3.60
2022-11-10T22:44:04.693Z,3.33
2022-11-10T22:46:31.197Z,4.37
2022-11-10T22:48:57.751Z,4.50
2022-11-10T22:51:24.239Z,4.60
2022-11-10T22:53:50.782Z,4.10
2022-11-10T22:56:18.846Z,3.53
2022-11-10T22:58:45.347Z,3.83
2022-11-10T23:01:11.967Z,4.57
2022-11-10T23:03:38.677Z,3.83
2022-11-10T23:06:05.185Z,3.97
2022-11-10T23:08:31.709Z,4.57
2022-11-10T23:10:58.466Z,4.53
2022-11-10T23:13:25.354Z,4.27
2022-11-10T23:15:54.134Z,4.30
2022-11-10T23:18:20.922Z,3.80
2022-11-10T23:20:47.650Z,3.87
2022-11-10T23:23:14.267Z,3.70
2022-11-10T23:25:40.907Z,3.60
2022-11-10T23:28:07.438Z,3.53
2022-11-10T23:30:33.941Z,4.00
2022-11-10T23:33:00.520Z,3.90
2022-11-10T23:35:27.008Z,5.13
2022-11-10T23:37:53.605Z,3.47
2022-11-10T23:40:20.082Z,3.60
2022-11-10T23:42:46.610Z,3.50
2022-11-10T23:45:13.109Z,4.47
2022-11-10T23:47:39.616Z,4.10
2022-11-10T23:50:06.146Z,3.70
2022-11-10T23:52:32.688Z,3.07
2022-11-10T23:54:59.195Z,3.13
2022-11-10T23:57:25.696Z,3.03
2022-11-10T23:59:52.246Z,2.60
